sensor_id;sensor_type;location;lat;lon;timestamp;P1;durP1;ratioP1;P2;durP2;ratioP2
17852;SDS011;9052;53.494;14.376;2024-01-16T00:01:41;3.73;;;0.87;;
17852;SDS011;9052;53.494;14.376;2024-01-16T00:04:09;0.90;;;0.90;;
17852;SDS011;9052;53.494;14.376;2024-01-16T00:06:39;3.10;;;0.57;;
17852;SDS011;9052;53.494;14.376;2024-01-16T00:09:06;0.60;;;0.60;;
17852;SDS011;9052;53.494;14.376;2024-01-16T00:11:33;0.87;;;0.73;;
17852;SDS011;9052;53.494;14.376;2024-01-16T00:14:00;1.57;;;1.07;;
17852;SDS011;9052;53.494;14.376;2024-01-16T00:16:27;0.70;;;0.70;;
17852;SDS011;9052;53.494;14.376;2024-01-16T00:18:54;1.03;;;0.60;;
17852;SDS011;9052;53.494;14.376;2024-01-16T00:21:21;0.70;;;0.60;;
17852;SDS011;9052;53.494;14.376;2024-01-16T00:23:49;0.63;;;0.50;;
17852;SDS011;9052;53.494;14.376;2024-01-16T00:26:20;0.60;;;0.33;;
17852;SDS011;9052;53.494;14.376;2024-01-16T00:28:47;4.60;;;1.10;;
17852;SDS011;9052;53.494;14.376;2024-01-16T00:31:14;8.13;;;0.97;;
17852;SDS011;9052;53.494;14.376;2024-01-16T00:33:41;0.90;;;0.70;;
17852;SDS011;9052;53.494;14.376;2024-01-16T00:36:08;0.83;;;0.80;;
17852;SDS011;9052;53.494;14.376;2024-01-16T00:38:35;6.13;;;0.50;;
17852;SDS011;9052;53.494;14.376;2024-01-16T00:41:03;0.87;;;0.77;;
17852;SDS011;9052;53.494;14.376;2024-01-16T00:43:31;3.20;;;0.87;;
17852;SDS011;9052;53.494;14.376;2024-01-16T00:46:00;0.53;;;0.43;;
17852;SDS011;9052;53.494;14.376;2024-01-16T00:48:30;3.90;;;1.37;;
17852;SDS011;9052;53.494;14.376;2024-01-16T00:50:57;0.73;;;0.50;;
17852;SDS011;9052;53.494;14.376;2024-01-16T00:53:25;3.60;;;0.67;;
17852;SDS011;9052;53.494;14.376;2024-01-16T00:55:52;1.33;;;0.80;;
17852;SDS011;9052;53.494;14.376;2024-01-16T00:58:21;0.40;;;0.40;;
17852;SDS011;9052;53.494;14.376;2024-01-16T01:00:48;1.17;;;0.50;;
17852;SDS011;9052;53.494;14.376;2024-01-16T01:03:15;2.80;;;0.60;;
17852;SDS011;9052;53.494;14.376;2024-01-16T01:05:42;0.43;;;0.37;;
17852;SDS011;9052;53.494;14.376;2024-01-16T01:08:09;5.17;;;2.43;;
17852;SDS011;9052;53.494;14.376;2024-01-16T01:10:36;4.83;;;0.90;;
17852;SDS011;9052;53.494;14.376;2024-01-16T01:13:04;3.60;;;1.13;;
17852;SDS011;9052;53.494;14.376;2024-01-16T01:15:32;0.83;;;0.83;;
17852;SDS011;9052;53.494;14.376;2024-01-16T01:17:59;0.93;;;0.60;;
17852;SDS011;9052;53.494;14.376;2024-01-16T01:20:27;0.40;;;0.40;;
17852;SDS011;9052;53.494;14.376;2024-01-16T01:22:54;0.77;;;0.77;;
17852;SDS011;9052;53.494;14.376;2024-01-16T01:25:20;0.60;;;0.60;;
17852;SDS011;9052;53.494;14.376;2024-01-16T01:27:47;3.13;;;1.40;;
17852;SDS011;9052;53.494;14.376;2024-01-16T01:30:15;1.67;;;0.80;;
17852;SDS011;9052;53.494;14.376;2024-01-16T01:32:43;1.17;;;0.80;;
17852;SDS011;9052;53.494;14.376;2024-01-16T01:35:10;1.17;;;0.93;;
17852;SDS011;9052;53.494;14.376;2024-01-16T01:37:37;0.70;;;0.70;;
17852;SDS011;9052;53.494;14.376;2024-01-16T01:40:05;0.77;;;0.47;;
17852;SDS011;9052;53.494;14.376;2024-01-16T01:42:34;0.40;;;0.40;;
17852;SDS011;9052;53.494;14.376;2024-01-16T01:45:01;1.37;;;0.60;;
17852;SDS011;9052;53.494;14.376;2024-01-16T01:47:29;2.63;;;0.77;;
17852;SDS011;9052;53.494;14.376;2024-01-16T01:49:57;2.20;;;0.50;;
17852;SDS011;9052;53.494;14.376;2024-01-16T01:52:24;0.97;;;0.83;;
17852;SDS011;9052;53.494;14.376;2024-01-16T01:54:51;4.53;;;1.70;;
17852;SDS011;9052;53.494;14.376;2024-01-16T01:57:19;3.67;;;1.90;;
17852;SDS011;9052;53.494;14.376;2024-01-16T01:59:46;6.00;;;2.30;;
17852;SDS011;9052;53.494;14.376;2024-01-16T02:02:13;5.33;;;2.43;;
17852;SDS011;9052;53.494;14.376;2024-01-16T02:04:40;2.00;;;1.80;;
17852;SDS011;9052;53.494;14.376;2024-01-16T02:07:09;1.70;;;1.00;;
17852;SDS011;9052;53.494;14.376;2024-01-16T02:09:36;5.20;;;3.33;;
17852;SDS011;9052;53.494;14.376;2024-01-16T02:12:04;10.10;;;2.87;;
17852;SDS011;9052;53.494;14.376;2024-01-16T02:14:32;7.53;;;2.57;;
17852;SDS011;9052;53.494;14.376;2024-01-16T02:16:59;7.67;;;2.83;;
17852;SDS011;9052;53.494;14.376;2024-01-16T02:19:26;3.57;;;2.47;;
17852;SDS011;9052;53.494;14.376;2024-01-16T02:21:54;4.67;;;2.50;;
17852;SDS011;9052;53.494;14.376;2024-01-16T02:24:28;2.00;;;1.90;;
17852;SDS011;9052;53.494;14.376;2024-01-16T02:26:55;3.00;;;1.50;;
17852;SDS011;9052;53.494;14.376;2024-01-16T02:29:22;1.73;;;1.20;;
17852;SDS011;9052;53.494;14.376;2024-01-16T02:31:49;1.37;;;1.27;;
17852;SDS011;9052;53.494;14.376;2024-01-16T02:34:17;0.83;;;0.57;;
17852;SDS011;9052;53.494;14.376;2024-01-16T02:36:44;2.07;;;1.30;;
17852;SDS011;9052;53.494;14.376;2024-01-16T02:39:11;1.20;;;1.10;;
17852;SDS011;9052;53.494;14.376;2024-01-16T02:41:39;11.03;;;1.37;;
17852;SDS011;9052;53.494;14.376;2024-01-16T02:44:06;1.10;;;1.00;;
17852;SDS011;9052;53.494;14.376;2024-01-16T02:46:33;0.73;;;0.73;;
17852;SDS011;9052;53.494;14.376;2024-01-16T02:49:00;1.93;;;0.60;;
17852;SDS011;9052;53.494;14.376;2024-01-16T02:51:27;0.40;;;0.40;;
17852;SDS011;9052;53.494;14.376;2024-01-16T02:53:54;0.70;;;0.50;;
17852;SDS011;9052;53.494;14.376;2024-01-16T02:56:20;0.40;;;0.30;;
17852;SDS011;9052;53.494;14.376;2024-01-16T02:58:49;1.97;;;0.43;;
17852;SDS011;9052;53.494;14.376;2024-01-16T03:01:16;4.63;;;0.30;;
17852;SDS011;9052;53.494;14.376;2024-01-16T03:03:43;0.37;;;0.37;;
17852;SDS011;9052;53.494;14.376;2024-01-16T03:06:10;0.73;;;0.63;;
17852;SDS011;9052;53.494;14.376;2024-01-16T03:08:47;1.70;;;1.20;;
17852;SDS011;9052;53.494;14.376;2024-01-16T03:11:14;1.27;;;0.83;;
17852;SDS011;9052;53.494;14.376;2024-01-16T03:13:41;3.70;;;0.70;;
17852;SDS011;9052;53.494;14.376;2024-01-16T03:16:10;1.63;;;0.60;;
17852;SDS011;9052;53.494;14.376;2024-01-16T03:18:37;0.33;;;0.33;;
17852;SDS011;9052;53.494;14.376;2024-01-16T03:21:04;0.70;;;0.70;;
17852;SDS011;9052;53.494;14.376;2024-01-16T03:23:32;3.00;;;0.40;;
17852;SDS011;9052;53.494;14.376;2024-01-16T03:25:59;0.63;;;0.63;;
17852;SDS011;9052;53.494;14.376;2024-01-16T03:28:26;2.10;;;1.00;;
17852;SDS011;9052;53.494;14.376;2024-01-16T03:30:53;7.00;;;0.67;;
17852;SDS011;9052;53.494;14.376;2024-01-16T03:33:22;9.53;;;1.17;;
17852;SDS011;9052;53.494;14.376;2024-01-16T03:35:49;0.80;;;0.80;;
17852;SDS011;9052;53.494;14.376;2024-01-16T03:38:16;1.60;;;0.70;;
17852;SDS011;9052;53.494;14.376;2024-01-16T03:40:43;0.97;;;0.63;;
17852;SDS011;9052;53.494;14.376;2024-01-16T03:43:10;0.40;;;0.40;;
17852;SDS011;9052;53.494;14.376;2024-01-16T03:45:37;0.30;;;0.30;;
17852;SDS011;9052;53.494;14.376;2024-01-16T03:48:04;1.13;;;0.30;;
17852;SDS011;9052;53.494;14.376;2024-01-16T03:50:33;0.63;;;0.50;;
17852;SDS011;9052;53.494;14.376;2024-01-16T03:53:01;0.63;;;0.60;;
17852;SDS011;9052;53.494;14.376;2024-01-16T03:55:29;1.87;;;0.50;;
17852;SDS011;9052;53.494;14.376;2024-01-16T03:57:56;0.77;;;0.77;;
17852;SDS011;9052;53.494;14.376;2024-01-16T04:00:23;1.00;;;0.53;;
17852;SDS011;9052;53.494;14.376;2024-01-16T04:02:51;1.10;;;0.73;;
17852;SDS011;9052;53.494;14.376;2024-01-16T04:05:18;0.30;;;0.30;;
17852;SDS011;9052;53.494;14.376;2024-01-16T04:07:46;0.47;;;0.47;;
17852;SDS011;9052;53.494;14.376;2024-01-16T04:10:13;0.40;;;0.40;;
17852;SDS011;9052;53.494;14.376;2024-01-16T04:12:40;1.43;;;0.53;;
17852;SDS011;9052;53.494;14.376;2024-01-16T04:15:07;0.40;;;0.40;;
17852;SDS011;9052;53.494;14.376;2024-01-16T04:17:35;5.83;;;0.87;;
17852;SDS011;9052;53.494;14.376;2024-01-16T04:20:02;0.70;;;0.50;;
17852;SDS011;9052;53.494;14.376;2024-01-16T04:22:32;5.93;;;0.60;;
17852;SDS011;9052;53.494;14.376;2024-01-16T04:25:00;1.20;;;0.60;;
17852;SDS011;9052;53.494;14.376;2024-01-16T04:27:29;0.30;;;0.30;;
17852;SDS011;9052;53.494;14.376;2024-01-16T04:29:56;1.10;;;0.50;;
17852;SDS011;9052;53.494;14.376;2024-01-16T04:32:23;22.03;;;0.80;;
17852;SDS011;9052;53.494;14.376;2024-01-16T04:34:50;1.27;;;0.37;;
17852;SDS011;9052;53.494;14.376;2024-01-16T04:37:17;3.03;;;0.60;;
17852;SDS011;9052;53.494;14.376;2024-01-16T04:39:44;0.30;;;0.30;;
17852;SDS011;9052;53.494;14.376;2024-01-16T04:42:12;0.20;;;0.20;;
17852;SDS011;9052;53.494;14.376;2024-01-16T04:44:39;0.30;;;0.30;;
17852;SDS011;9052;53.494;14.376;2024-01-16T04:47:06;0.40;;;0.30;;
17852;SDS011;9052;53.494;14.376;2024-01-16T04:49:33;0.57;;;0.27;;
17852;SDS011;9052;53.494;14.376;2024-01-16T04:52:00;0.40;;;0.40;;
17852;SDS011;9052;53.494;14.376;2024-01-16T04:54:28;1.43;;;0.73;;
17852;SDS011;9052;53.494;14.376;2024-01-16T04:56:55;0.33;;;0.33;;
17852;SDS011;9052;53.494;14.376;2024-01-16T04:59:23;0.60;;;0.40;;
17852;SDS011;9052;53.494;14.376;2024-01-16T05:01:53;0.80;;;0.40;;
17852;SDS011;9052;53.494;14.376;2024-01-16T05:04:20;1.33;;;0.97;;
17852;SDS011;9052;53.494;14.376;2024-01-16T05:06:50;0.50;;;0.50;;
17852;SDS011;9052;53.494;14.376;2024-01-16T05:09:17;0.43;;;0.43;;
17852;SDS011;9052;53.494;14.376;2024-01-16T05:11:44;1.07;;;1.07;;
17852;SDS011;9052;53.494;14.376;2024-01-16T05:14:11;1.50;;;1.40;;
17852;SDS011;9052;53.494;14.376;2024-01-16T05:16:40;2.60;;;2.13;;
17852;SDS011;9052;53.494;14.376;2024-01-16T05:19:07;2.50;;;1.17;;
17852;SDS011;9052;53.494;14.376;2024-01-16T05:21:34;1.00;;;1.00;;
17852;SDS011;9052;53.494;14.376;2024-01-16T05:24:01;1.67;;;1.47;;
17852;SDS011;9052;53.494;14.376;2024-01-16T05:26:28;0.70;;;0.70;;
17852;SDS011;9052;53.494;14.376;2024-01-16T05:28:55;0.80;;;0.43;;
17852;SDS011;9052;53.494;14.376;2024-01-16T05:31:22;3.30;;;1.50;;
17852;SDS011;9052;53.494;14.376;2024-01-16T05:33:51;1.50;;;0.83;;
17852;SDS011;9052;53.494;14.376;2024-01-16T05:36:18;1.43;;;0.80;;
17852;SDS011;9052;53.494;14.376;2024-01-16T05:38:46;4.33;;;0.90;;
17852;SDS011;9052;53.494;14.376;2024-01-16T05:41:13;0.70;;;0.50;;
17852;SDS011;9052;53.494;14.376;2024-01-16T05:43:40;2.43;;;0.73;;
17852;SDS011;9052;53.494;14.376;2024-01-16T05:46:08;1.80;;;0.97;;
17852;SDS011;9052;53.494;14.376;2024-01-16T05:48:35;0.60;;;0.60;;
17852;SDS011;9052;53.494;14.376;2024-01-16T05:51:04;1.07;;;0.87;;
17852;SDS011;9052;53.494;14.376;2024-01-16T05:53:31;1.40;;;0.63;;
17852;SDS011;9052;53.494;14.376;2024-01-16T05:55:58;1.00;;;0.97;;
17852;SDS011;9052;53.494;14.376;2024-01-16T05:58:25;2.20;;;0.90;;
17852;SDS011;9052;53.494;14.376;2024-01-16T06:00:52;0.40;;;0.40;;
17852;SDS011;9052;53.494;14.376;2024-01-16T06:03:20;0.47;;;0.47;;
17852;SDS011;9052;53.494;14.376;2024-01-16T06:05:47;8.20;;;0.80;;
17852;SDS011;9052;53.494;14.376;2024-01-16T06:08:16;3.90;;;1.10;;
17852;SDS011;9052;53.494;14.376;2024-01-16T06:10:45;0.60;;;0.60;;
17852;SDS011;9052;53.494;14.376;2024-01-16T06:13:12;0.77;;;0.77;;
17852;SDS011;9052;53.494;14.376;2024-01-16T06:15:39;1.90;;;0.60;;
17852;SDS011;9052;53.494;14.376;2024-01-16T06:18:06;1.03;;;0.67;;
17852;SDS011;9052;53.494;14.376;2024-01-16T06:20:34;0.33;;;0.33;;
17852;SDS011;9052;53.494;14.376;2024-01-16T06:23:01;6.20;;;0.67;;
17852;SDS011;9052;53.494;14.376;2024-01-16T06:25:29;0.40;;;0.40;;
17852;SDS011;9052;53.494;14.376;2024-01-16T06:27:56;0.30;;;0.30;;
17852;SDS011;9052;53.494;14.376;2024-01-16T06:30:23;0.70;;;0.37;;
17852;SDS011;9052;53.494;14.376;2024-01-16T06:32:50;0.67;;;0.67;;
17852;SDS011;9052;53.494;14.376;2024-01-16T06:35:17;1.50;;;0.57;;
17852;SDS011;9052;53.494;14.376;2024-01-16T06:37:44;0.43;;;0.43;;
17852;SDS011;9052;53.494;14.376;2024-01-16T06:40:11;0.30;;;0.30;;
17852;SDS011;9052;53.494;14.376;2024-01-16T06:42:39;0.20;;;0.20;;
17852;SDS011;9052;53.494;14.376;2024-01-16T06:45:06;0.50;;;0.50;;
17852;SDS011;9052;53.494;14.376;2024-01-16T06:47:34;3.80;;;1.17;;
17852;SDS011;9052;53.494;14.376;2024-01-16T06:50:00;0.50;;;0.50;;
17852;SDS011;9052;53.494;14.376;2024-01-16T06:52:28;0.30;;;0.30;;
17852;SDS011;9052;53.494;14.376;2024-01-16T06:54:55;0.63;;;0.50;;
17852;SDS011;9052;53.494;14.376;2024-01-16T06:57:22;1.40;;;0.50;;
17852;SDS011;9052;53.494;14.376;2024-01-16T06:59:51;0.30;;;0.30;;
17852;SDS011;9052;53.494;14.376;2024-01-16T07:02:18;0.20;;;0.20;;
17852;SDS011;9052;53.494;14.376;2024-01-16T07:04:45;0.60;;;0.60;;
17852;SDS011;9052;53.494;14.376;2024-01-16T07:07:12;0.30;;;0.30;;
17852;SDS011;9052;53.494;14.376;2024-01-16T07:12:13;0.60;;;0.60;;
17852;SDS011;9052;53.494;14.376;2024-01-16T07:14:39;2.50;;;1.13;;
17852;SDS011;9052;53.494;14.376;2024-01-16T07:17:08;0.60;;;0.60;;
17852;SDS011;9052;53.494;14.376;2024-01-16T07:19:35;0.90;;;0.70;;
17852;SDS011;9052;53.494;14.376;2024-01-16T07:22:02;0.53;;;0.53;;
17852;SDS011;9052;53.494;14.376;2024-01-16T07:24:29;0.60;;;0.60;;
17852;SDS011;9052;53.494;14.376;2024-01-16T07:26:56;1.90;;;0.80;;
17852;SDS011;9052;53.494;14.376;2024-01-16T07:29:23;1.00;;;0.90;;
17852;SDS011;9052;53.494;14.376;2024-01-16T07:31:51;0.50;;;0.50;;
17852;SDS011;9052;53.494;14.376;2024-01-16T07:34:20;9.33;;;0.77;;
17852;SDS011;9052;53.494;14.376;2024-01-16T07:36:47;1.60;;;1.50;;
17852;SDS011;9052;53.494;14.376;2024-01-16T07:39:15;1.43;;;1.33;;
17852;SDS011;9052;53.494;14.376;2024-01-16T07:41:42;3.30;;;2.90;;
17852;SDS011;9052;53.494;14.376;2024-01-16T07:44:09;3.23;;;1.53;;
17852;SDS011;9052;53.494;14.376;2024-01-16T07:46:36;3.10;;;1.47;;
17852;SDS011;9052;53.494;14.376;2024-01-16T07:49:02;2.20;;;1.63;;
17852;SDS011;9052;53.494;14.376;2024-01-16T07:51:31;4.10;;;1.93;;
17852;SDS011;9052;53.494;14.376;2024-01-16T07:54:04;2.60;;;1.53;;
17852;SDS011;9052;53.494;14.376;2024-01-16T07:56:32;5.60;;;3.27;;
17852;SDS011;9052;53.494;14.376;2024-01-16T07:58:59;8.37;;;4.77;;
17852;SDS011;9052;53.494;14.376;2024-01-16T08:01:26;13.73;;;7.93;;
17852;SDS011;9052;53.494;14.376;2024-01-16T08:03:53;6.00;;;5.27;;
17852;SDS011;9052;53.494;14.376;2024-01-16T08:06:20;2.87;;;2.43;;
17852;SDS011;9052;53.494;14.376;2024-01-16T08:08:49;10.93;;;2.30;;
17852;SDS011;9052;53.494;14.376;2024-01-16T08:11:18;2.03;;;1.00;;
17852;SDS011;9052;53.494;14.376;2024-01-16T08:13:45;6.53;;;3.10;;
17852;SDS011;9052;53.494;14.376;2024-01-16T08:16:12;9.57;;;1.90;;
17852;SDS011;9052;53.494;14.376;2024-01-16T08:18:39;7.07;;;4.53;;
17852;SDS011;9052;53.494;14.376;2024-01-16T08:21:06;3.67;;;3.33;;
17852;SDS011;9052;53.494;14.376;2024-01-16T08:23:33;9.30;;;4.37;;
17852;SDS011;9052;53.494;14.376;2024-01-16T08:26:02;6.00;;;4.20;;
17852;SDS011;9052;53.494;14.376;2024-01-16T08:28:30;3.60;;;2.50;;
17852;SDS011;9052;53.494;14.376;2024-01-16T08:30:57;1.50;;;1.10;;
17852;SDS011;9052;53.494;14.376;2024-01-16T08:33:24;1.80;;;1.20;;
17852;SDS011;9052;53.494;14.376;2024-01-16T08:35:51;0.87;;;0.87;;
17852;SDS011;9052;53.494;14.376;2024-01-16T08:38:17;1.60;;;1.43;;
17852;SDS011;9052;53.494;14.376;2024-01-16T08:40:45;18.17;;;1.20;;
17852;SDS011;9052;53.494;14.376;2024-01-16T08:43:13;1.40;;;1.30;;
17852;SDS011;9052;53.494;14.376;2024-01-16T08:45:40;2.47;;;1.70;;
17852;SDS011;9052;53.494;14.376;2024-01-16T08:48:07;3.43;;;1.83;;
17852;SDS011;9052;53.494;14.376;2024-01-16T08:50:34;1.57;;;1.47;;
17852;SDS011;9052;53.494;14.376;2024-01-16T08:53:02;1.37;;;1.20;;
17852;SDS011;9052;53.494;14.376;2024-01-16T08:55:29;1.10;;;0.60;;
17852;SDS011;9052;53.494;14.376;2024-01-16T08:57:56;4.93;;;1.00;;
17852;SDS011;9052;53.494;14.376;2024-01-16T09:00:24;0.50;;;0.50;;
17852;SDS011;9052;53.494;14.376;2024-01-16T09:02:52;2.60;;;0.83;;
17852;SDS011;9052;53.494;14.376;2024-01-16T09:05:19;0.97;;;0.97;;
17852;SDS011;9052;53.494;14.376;2024-01-16T09:07:50;1.20;;;1.20;;
17852;SDS011;9052;53.494;14.376;2024-01-16T09:10:17;0.93;;;0.90;;
17852;SDS011;9052;53.494;14.376;2024-01-16T09:12:45;2.23;;;1.20;;
17852;SDS011;9052;53.494;14.376;2024-01-16T09:15:12;1.70;;;0.83;;
17852;SDS011;9052;53.494;14.376;2024-01-16T09:17:42;3.83;;;1.07;;
17852;SDS011;9052;53.494;14.376;2024-01-16T09:20:09;0.93;;;0.90;;
17852;SDS011;9052;53.494;14.376;2024-01-16T09:22:37;3.60;;;0.87;;
17852;SDS011;9052;53.494;14.376;2024-01-16T09:25:04;2.47;;;1.10;;
17852;SDS011;9052;53.494;14.376;2024-01-16T09:27:31;6.33;;;1.33;;
17852;SDS011;9052;53.494;14.376;2024-01-16T09:29:58;7.70;;;1.10;;
17852;SDS011;9052;53.494;14.376;2024-01-16T09:32:26;0.90;;;0.70;;
17852;SDS011;9052;53.494;14.376;2024-01-16T09:34:54;2.73;;;1.03;;
17852;SDS011;9052;53.494;14.376;2024-01-16T09:37:23;1.70;;;0.83;;
17852;SDS011;9052;53.494;14.376;2024-01-16T09:39:50;1.00;;;1.00;;
17852;SDS011;9052;53.494;14.376;2024-01-16T09:42:19;2.67;;;1.13;;
17852;SDS011;9052;53.494;14.376;2024-01-16T09:44:46;23.23;;;0.83;;
17852;SDS011;9052;53.494;14.376;2024-01-16T09:47:14;2.57;;;1.67;;
17852;SDS011;9052;53.494;14.376;2024-01-16T09:49:42;0.70;;;0.70;;
17852;SDS011;9052;53.494;14.376;2024-01-16T09:52:10;0.50;;;0.50;;
17852;SDS011;9052;53.494;14.376;2024-01-16T09:54:37;0.83;;;0.83;;
17852;SDS011;9052;53.494;14.376;2024-01-16T09:57:04;3.40;;;0.97;;
17852;SDS011;9052;53.494;14.376;2024-01-16T09:59:33;2.00;;;1.43;;
17852;SDS011;9052;53.494;14.376;2024-01-16T10:02:04;2.73;;;0.90;;
17852;SDS011;9052;53.494;14.376;2024-01-16T10:04:32;7.07;;;1.10;;
17852;SDS011;9052;53.494;14.376;2024-01-16T10:06:59;2.20;;;1.00;;
17852;SDS011;9052;53.494;14.376;2024-01-16T10:09:29;3.07;;;1.20;;
17852;SDS011;9052;53.494;14.376;2024-01-16T10:11:56;2.40;;;1.10;;
17852;SDS011;9052;53.494;14.376;2024-01-16T10:14:25;10.17;;;3.53;;
17852;SDS011;9052;53.494;14.376;2024-01-16T10:16:55;17.53;;;6.23;;
17852;SDS011;9052;53.494;14.376;2024-01-16T10:19:24;1.90;;;1.70;;
17852;SDS011;9052;53.494;14.376;2024-01-16T10:21:52;4.53;;;1.10;;
17852;SDS011;9052;53.494;14.376;2024-01-16T10:24:19;0.93;;;0.83;;
17852;SDS011;9052;53.494;14.376;2024-01-16T10:26:49;1.90;;;0.60;;
17852;SDS011;9052;53.494;14.376;2024-01-16T10:29:25;2.00;;;0.93;;
17852;SDS011;9052;53.494;14.376;2024-01-16T10:31:52;8.83;;;3.30;;
17852;SDS011;9052;53.494;14.376;2024-01-16T10:34:20;1.00;;;0.90;;
17852;SDS011;9052;53.494;14.376;2024-01-16T10:36:58;3.27;;;0.70;;
17852;SDS011;9052;53.494;14.376;2024-01-16T10:39:33;1.70;;;1.07;;
17852;SDS011;9052;53.494;14.376;2024-01-16T10:42:04;7.93;;;1.53;;
17852;SDS011;9052;53.494;14.376;2024-01-16T10:44:31;1.60;;;0.90;;
17852;SDS011;9052;53.494;14.376;2024-01-16T10:47:09;3.07;;;1.30;;
17852;SDS011;9052;53.494;14.376;2024-01-16T10:49:37;1.83;;;1.00;;
17852;SDS011;9052;53.494;14.376;2024-01-16T10:52:04;7.67;;;2.80;;
17852;SDS011;9052;53.494;14.376;2024-01-16T10:54:38;6.40;;;3.70;;
17852;SDS011;9052;53.494;14.376;2024-01-16T10:57:09;3.53;;;0.90;;
17852;SDS011;9052;53.494;14.376;2024-01-16T10:59:38;2.17;;;1.50;;
17852;SDS011;9052;53.494;14.376;2024-01-16T11:02:09;1.77;;;0.83;;
17852;SDS011;9052;53.494;14.376;2024-01-16T11:04:37;7.87;;;1.63;;
17852;SDS011;9052;53.494;14.376;2024-01-16T11:07:04;2.83;;;1.57;;
17852;SDS011;9052;53.494;14.376;2024-01-16T11:09:32;5.13;;;1.63;;
17852;SDS011;9052;53.494;14.376;2024-01-16T11:11:59;4.30;;;2.20;;
17852;SDS011;9052;53.494;14.376;2024-01-16T11:14:28;1.73;;;1.43;;
17852;SDS011;9052;53.494;14.376;2024-01-16T11:16:57;3.00;;;1.73;;
17852;SDS011;9052;53.494;14.376;2024-01-16T11:19:26;3.10;;;1.60;;
17852;SDS011;9052;53.494;14.376;2024-01-16T11:21:54;1.67;;;0.87;;
17852;SDS011;9052;53.494;14.376;2024-01-16T11:24:21;1.17;;;1.03;;
17852;SDS011;9052;53.494;14.376;2024-01-16T11:26:48;2.33;;;1.57;;
17852;SDS011;9052;53.494;14.376;2024-01-16T11:29:35;3.70;;;2.30;;
17852;SDS011;9052;53.494;14.376;2024-01-16T11:32:03;5.87;;;2.33;;
17852;SDS011;9052;53.494;14.376;2024-01-16T11:37:24;1.53;;;1.27;;
17852;SDS011;9052;53.494;14.376;2024-01-16T11:39:54;2.03;;;1.53;;
17852;SDS011;9052;53.494;14.376;2024-01-16T11:42:51;1.57;;;1.47;;
17852;SDS011;9052;53.494;14.376;2024-01-16T11:48:16;2.73;;;1.43;;
17852;SDS011;9052;53.494;14.376;2024-01-16T11:50:45;3.87;;;1.47;;
17852;SDS011;9052;53.494;14.376;2024-01-16T11:56:11;1.63;;;0.63;;
17852;SDS011;9052;53.494;14.376;2024-01-16T11:58:48;3.60;;;1.23;;
17852;SDS011;9052;53.494;14.376;2024-01-16T12:01:18;1.13;;;1.00;;
17852;SDS011;9052;53.494;14.376;2024-01-16T12:03:46;2.13;;;1.20;;
17852;SDS011;9052;53.494;14.376;2024-01-16T12:06:15;1.97;;;1.10;;
17852;SDS011;9052;53.494;14.376;2024-01-16T12:08:42;3.37;;;0.73;;
17852;SDS011;9052;53.494;14.376;2024-01-16T12:11:09;1.40;;;0.77;;
17852;SDS011;9052;53.494;14.376;2024-01-16T12:13:36;3.90;;;1.13;;
17852;SDS011;9052;53.494;14.376;2024-01-16T12:16:03;1.17;;;0.70;;
17852;SDS011;9052;53.494;14.376;2024-01-16T12:18:35;3.90;;;0.93;;
17852;SDS011;9052;53.494;14.376;2024-01-16T12:21:07;0.40;;;0.40;;
17852;SDS011;9052;53.494;14.376;2024-01-16T12:23:35;2.83;;;1.00;;
17852;SDS011;9052;53.494;14.376;2024-01-16T12:26:02;2.00;;;0.43;;
17852;SDS011;9052;53.494;14.376;2024-01-16T12:28:29;3.80;;;1.07;;
17852;SDS011;9052;53.494;14.376;2024-01-16T12:30:56;2.30;;;0.97;;
17852;SDS011;9052;53.494;14.376;2024-01-16T12:33:22;0.60;;;0.60;;
17852;SDS011;9052;53.494;14.376;2024-01-16T12:35:56;1.03;;;0.93;;
17852;SDS011;9052;53.494;14.376;2024-01-16T12:38:27;1.43;;;0.67;;
17852;SDS011;9052;53.494;14.376;2024-01-16T12:40:54;0.50;;;0.50;;
17852;SDS011;9052;53.494;14.376;2024-01-16T12:43:21;1.10;;;1.00;;
17852;SDS011;9052;53.494;14.376;2024-01-16T12:45:54;8.93;;;0.80;;
17852;SDS011;9052;53.494;14.376;2024-01-16T12:48:22;4.00;;;0.70;;
17852;SDS011;9052;53.494;14.376;2024-01-16T12:50:51;1.03;;;0.60;;
17852;SDS011;9052;53.494;14.376;2024-01-16T12:53:25;5.03;;;0.80;;
17852;SDS011;9052;53.494;14.376;2024-01-16T12:55:57;3.47;;;0.90;;
17852;SDS011;9052;53.494;14.376;2024-01-16T12:58:25;4.33;;;1.00;;
17852;SDS011;9052;53.494;14.376;2024-01-16T13:00:53;1.80;;;0.67;;
17852;SDS011;9052;53.494;14.376;2024-01-16T13:03:21;8.10;;;0.90;;
17852;SDS011;9052;53.494;14.376;2024-01-16T13:05:56;0.80;;;0.60;;
17852;SDS011;9052;53.494;14.376;2024-01-16T13:08:23;1.47;;;0.97;;
17852;SDS011;9052;53.494;14.376;2024-01-16T13:11:03;4.80;;;0.90;;
17852;SDS011;9052;53.494;14.376;2024-01-16T13:13:31;1.90;;;1.13;;
17852;SDS011;9052;53.494;14.376;2024-01-16T13:15:58;0.93;;;0.60;;
17852;SDS011;9052;53.494;14.376;2024-01-16T13:18:25;0.83;;;0.83;;
17852;SDS011;9052;53.494;14.376;2024-01-16T13:20:53;1.13;;;0.70;;
17852;SDS011;9052;53.494;14.376;2024-01-16T13:23:23;2.00;;;1.27;;
17852;SDS011;9052;53.494;14.376;2024-01-16T13:25:51;0.90;;;0.90;;
17852;SDS011;9052;53.494;14.376;2024-01-16T13:28:18;0.57;;;0.57;;
17852;SDS011;9052;53.494;14.376;2024-01-16T13:30:46;0.77;;;0.77;;
17852;SDS011;9052;53.494;14.376;2024-01-16T13:33:14;1.00;;;1.00;;
17852;SDS011;9052;53.494;14.376;2024-01-16T13:35:42;1.20;;;1.07;;
17852;SDS011;9052;53.494;14.376;2024-01-16T13:38:11;2.10;;;1.20;;
17852;SDS011;9052;53.494;14.376;2024-01-16T13:40:40;3.47;;;1.60;;
17852;SDS011;9052;53.494;14.376;2024-01-16T13:43:07;6.43;;;1.30;;
17852;SDS011;9052;53.494;14.376;2024-01-16T13:45:34;1.43;;;1.33;;
17852;SDS011;9052;53.494;14.376;2024-01-16T13:48:02;5.37;;;1.60;;
17852;SDS011;9052;53.494;14.376;2024-01-16T13:50:30;2.30;;;1.70;;
17852;SDS011;9052;53.494;14.376;2024-01-16T13:52:58;4.10;;;1.13;;
17852;SDS011;9052;53.494;14.376;2024-01-16T13:55:27;1.80;;;1.43;;
17852;SDS011;9052;53.494;14.376;2024-01-16T13:57:54;3.63;;;2.40;;
17852;SDS011;9052;53.494;14.376;2024-01-16T14:00:21;12.10;;;2.43;;
17852;SDS011;9052;53.494;14.376;2024-01-16T14:02:48;2.90;;;2.03;;
17852;SDS011;9052;53.494;14.376;2024-01-16T14:05:16;2.90;;;1.90;;
17852;SDS011;9052;53.494;14.376;2024-01-16T14:07:44;1.50;;;1.23;;
17852;SDS011;9052;53.494;14.376;2024-01-16T14:10:13;2.60;;;1.90;;
17852;SDS011;9052;53.494;14.376;2024-01-16T14:12:42;2.83;;;2.40;;
17852;SDS011;9052;53.494;14.376;2024-01-16T14:15:10;1.90;;;1.80;;
17852;SDS011;9052;53.494;14.376;2024-01-16T14:17:44;5.63;;;2.13;;
17852;SDS011;9052;53.494;14.376;2024-01-16T14:20:11;5.77;;;3.37;;
17852;SDS011;9052;53.494;14.376;2024-01-16T14:22:39;3.77;;;2.60;;
17852;SDS011;9052;53.494;14.376;2024-01-16T14:25:06;3.33;;;2.60;;
17852;SDS011;9052;53.494;14.376;2024-01-16T14:27:36;3.47;;;2.70;;
17852;SDS011;9052;53.494;14.376;2024-01-16T14:30:09;5.63;;;3.20;;
17852;SDS011;9052;53.494;14.376;2024-01-16T14:32:38;5.73;;;3.60;;
17852;SDS011;9052;53.494;14.376;2024-01-16T14:35:05;5.60;;;3.53;;
17852;SDS011;9052;53.494;14.376;2024-01-16T14:37:35;15.20;;;6.07;;
17852;SDS011;9052;53.494;14.376;2024-01-16T14:40:04;5.00;;;3.27;;
17852;SDS011;9052;53.494;14.376;2024-01-16T14:42:37;2.23;;;2.13;;
17852;SDS011;9052;53.494;14.376;2024-01-16T14:45:05;3.63;;;3.33;;
17852;SDS011;9052;53.494;14.376;2024-01-16T14:47:34;7.40;;;4.33;;
17852;SDS011;9052;53.494;14.376;2024-01-16T14:50:01;3.17;;;2.97;;
17852;SDS011;9052;53.494;14.376;2024-01-16T14:52:29;4.97;;;4.20;;
17852;SDS011;9052;53.494;14.376;2024-01-16T14:54:57;11.43;;;5.87;;
17852;SDS011;9052;53.494;14.376;2024-01-16T14:57:24;8.80;;;5.87;;
17852;SDS011;9052;53.494;14.376;2024-01-16T14:59:52;11.73;;;7.70;;
17852;SDS011;9052;53.494;14.376;2024-01-16T15:02:19;22.00;;;9.57;;
17852;SDS011;9052;53.494;14.376;2024-01-16T15:04:47;21.03;;;8.30;;